createdAt,value
2022-11-03T00:02:00.612Z,8.10
2022-11-03T00:04:30.981Z,8.10
2022-11-03T00:06:59.428Z,8.00
2022-11-03T00:09:28.202Z,8.00
2022-11-03T00:12:06.587Z,8.00
2022-11-03T00:14:35.448Z,8.00
2022-11-03T00:17:04.023Z,7.90
2022-11-03T00:19:33.822Z,7.90
2022-11-03T00:22:02.301Z,7.90
2022-11-03T00:24:30.859Z,7.80
2022-11-03T00:26:59.590Z,7.80
2022-11-03T00:29:28.052Z,7.70
2022-11-03T00:31:56.510Z,7.70
2022-11-03T00:34:25.033Z,7.70
2022-11-03T00:36:54.904Z,7.70
2022-11-03T00:39:23.448Z,7.60
2022-11-03T00:41:51.983Z,7.60
2022-11-03T00:44:20.446Z,7.60
2022-11-03T00:46:48.908Z,7.60
2022-11-03T00:49:17.869Z,7.60
2022-11-03T00:51:46.347Z,7.60
2022-11-03T00:54:16.280Z,7.60
2022-11-03T00:56:45.265Z,7.60
2022-11-03T00:59:13.755Z,7.60
2022-11-03T01:01:47.252Z,7.70
2022-11-03T01:04:37.831Z,7.70
2022-11-03T01:07:07.764Z,7.70
2022-11-03T01:09:40.408Z,7.70
2022-11-03T01:12:12.653Z,7.60
2022-11-03T01:14:44.559Z,7.60
2022-11-03T01:17:15.950Z,7.60
2022-11-03T01:19:44.905Z,7.60
2022-11-03T01:22:14.898Z,7.60
2022-11-03T01:24:45.779Z,7.50
2022-11-03T01:27:20.579Z,7.50
2022-11-03T01:29:52.298Z,7.50
2022-11-03T01:32:20.740Z,7.50
2022-11-03T01:34:49.140Z,7.50
2022-11-03T01:37:17.671Z,7.50
2022-11-03T01:39:47.573Z,7.50
2022-11-03T01:42:16.031Z,7.50
2022-11-03T01:44:49.783Z,7.50
2022-11-03T01:47:28.083Z,7.40
2022-11-03T01:50:02.969Z,7.40
2022-11-03T01:52:38.640Z,7.40
2022-11-03T01:55:17.126Z,7.40
2022-11-03T01:57:52.763Z,7.40
2022-11-03T02:00:22.033Z,7.30
2022-11-03T02:02:52.051Z,7.30
2022-11-03T02:05:22.991Z,7.30
2022-11-03T02:07:57.210Z,7.30
2022-11-03T02:10:27.443Z,7.30
2022-11-03T02:12:55.834Z,7.20
2022-11-03T02:15:25.934Z,7.30
2022-11-03T02:17:57.596Z,7.30
2022-11-03T02:20:29.488Z,7.30
2022-11-03T02:23:29.544Z,7.30
2022-11-03T02:26:00.727Z,7.30
2022-11-03T02:28:32.970Z,7.20
2022-11-03T02:31:12.264Z,7.20
2022-11-03T02:33:59.681Z,7.20
2022-11-03T02:36:35.113Z,7.00
2022-11-03T02:39:10.869Z,7.20
2022-11-03T02:41:43.000Z,7.20
2022-11-03T02:44:18.441Z,7.20
2022-11-03T02:46:50.302Z,7.20
2022-11-03T02:49:19.411Z,7.20
2022-11-03T02:51:47.878Z,7.20
2022-11-03T02:54:23.578Z,7.20
2022-11-03T02:57:00.677Z,7.10
2022-11-03T02:59:35.848Z,7.20
2022-11-03T03:02:10.811Z,7.10
2022-11-03T03:04:42.813Z,7.10
2022-11-03T03:07:18.528Z,7.10
2022-11-03T03:09:56.234Z,7.00
2022-11-03T03:12:29.038Z,7.20
2022-11-03T03:15:00.617Z,7.10
2022-11-03T03:17:38.742Z,7.10
2022-11-03T03:20:16.331Z,7.10
2022-11-03T03:22:50.523Z,7.10
2022-11-03T03:25:28.054Z,7.10
2022-11-03T03:28:05.790Z,7.10
2022-11-03T03:30:37.593Z,7.10
2022-11-03T03:33:09.440Z,7.10
2022-11-03T03:35:43.471Z,7.10
2022-11-03T03:38:17.931Z,7.10
2022-11-03T03:40:53.347Z,7.20
2022-11-03T03:43:26.874Z,7.20
2022-11-03T03:46:03.408Z,7.20
2022-11-03T03:48:31.994Z,7.30
2022-11-03T03:51:03.089Z,7.30
2022-11-03T03:53:32.408Z,7.30
2022-11-03T03:56:01.260Z,7.30
2022-11-03T03:58:31.144Z,7.50
2022-11-03T04:00:59.681Z,7.40
2022-11-03T04:03:29.364Z,7.40
2022-11-03T04:05:58.000Z,7.30
2022-11-03T04:08:26.698Z,7.40
2022-11-03T04:11:12.684Z,7.40
2022-11-03T04:13:59.881Z,7.40
2022-11-03T04:16:45.832Z,7.30
2022-11-03T04:19:31.799Z,7.30
2022-11-03T04:22:18.167Z,7.30
2022-11-03T04:24:48.648Z,7.20
2022-11-03T04:27:33.235Z,7.10
2022-11-03T04:30:15.407Z,7.10
2022-11-03T04:32:45.372Z,7.20
2022-11-03T04:35:20.597Z,7.20
2022-11-03T04:37:57.051Z,7.20
2022-11-03T04:40:25.696Z,7.10
2022-11-03T04:42:54.379Z,7.10
2022-11-03T04:45:31.329Z,7.10
2022-11-03T04:48:03.218Z,7.10
2022-11-03T04:50:31.657Z,7.00
2022-11-03T04:53:01.116Z,7.10
2022-11-03T04:55:29.588Z,7.00
2022-11-03T04:58:03.809Z,7.10
2022-11-03T05:00:33.805Z,7.10
2022-11-03T05:03:02.613Z,7.10
2022-11-03T05:05:31.090Z,7.10
2022-11-03T05:08:00.464Z,7.00
2022-11-03T05:10:30.833Z,7.00
2022-11-03T05:13:02.096Z,7.00
2022-11-03T05:15:37.002Z,7.00
2022-11-03T05:18:21.231Z,7.00
2022-11-03T05:20:57.772Z,7.00
2022-11-03T05:23:30.854Z,7.00
2022-11-03T05:26:00.546Z,7.00
2022-11-03T05:28:35.061Z,6.90
2022-11-03T05:31:25.494Z,6.90
2022-11-03T05:33:58.604Z,6.90
2022-11-03T05:36:31.715Z,6.90
2022-11-03T05:39:23.289Z,6.90
2022-11-03T05:41:51.805Z,6.90
2022-11-03T05:44:33.595Z,6.90
2022-11-03T05:47:10.214Z,6.90
2022-11-03T05:49:38.842Z,6.80
2022-11-03T05:52:17.015Z,6.80
2022-11-03T05:54:45.607Z,6.80
2022-11-03T05:57:17.213Z,6.80
2022-11-03T05:59:49.130Z,6.80
2022-11-03T06:02:39.177Z,6.90
2022-11-03T06:05:19.413Z,6.80
2022-11-03T06:07:49.674Z,6.90
2022-11-03T06:10:29.667Z,6.80
2022-11-03T06:13:03.700Z,6.90
2022-11-03T06:15:36.101Z,6.90
2022-11-03T06:18:16.323Z,6.90
2022-11-03T06:20:51.990Z,6.80
2022-11-03T06:23:21.902Z,6.90
2022-11-03T06:25:53.831Z,6.90
2022-11-03T06:28:36.883Z,6.90
2022-11-03T06:31:08.234Z,7.00
2022-11-03T06:33:38.192Z,6.80
2022-11-03T06:36:19.879Z,6.90
2022-11-03T06:38:55.713Z,6.90
2022-11-03T06:41:28.864Z,6.90
2022-11-03T06:43:58.609Z,6.90
2022-11-03T06:46:28.689Z,6.90
2022-11-03T06:49:04.320Z,7.00
2022-11-03T06:51:37.149Z,7.00
2022-11-03T06:54:11.187Z,7.10
2022-11-03T06:56:39.843Z,7.10
2022-11-03T06:59:15.429Z,7.20
2022-11-03T07:01:45.755Z,7.30
2022-11-03T07:04:20.964Z,7.40
2022-11-03T07:06:53.336Z,7.40
2022-11-03T07:09:26.298Z,7.40
2022-11-03T07:11:58.775Z,7.40
2022-11-03T07:14:30.802Z,7.30
2022-11-03T07:17:03.586Z,7.40
2022-11-03T07:19:37.722Z,7.50
2022-11-03T07:22:16.298Z,7.60
2022-11-03T07:24:48.388Z,7.60
2022-11-03T07:27:23.447Z,7.70
2022-11-03T07:29:54.552Z,7.80
2022-11-03T07:32:27.858Z,7.90
2022-11-03T07:35:12.869Z,8.00
2022-11-03T07:37:41.427Z,8.10
2022-11-03T07:40:17.298Z,8.10
2022-11-03T07:42:46.341Z,8.20
2022-11-03T07:45:39.412Z,8.20
2022-11-03T07:48:21.714Z,8.30
2022-11-03T07:50:55.153Z,8.30
2022-11-03T07:53:34.754Z,8.30
2022-11-03T07:56:14.478Z,8.30
2022-11-03T07:58:44.647Z,8.40
2022-11-03T08:01:27.195Z,8.50
2022-11-03T08:04:01.871Z,8.60
2022-11-03T08:06:31.984Z,8.60
2022-11-03T08:09:00.778Z,8.70
2022-11-03T08:11:29.957Z,8.80
2022-11-03T08:13:58.634Z,8.90
2022-11-03T08:16:27.445Z,9.00
2022-11-03T08:18:55.963Z,9.00
2022-11-03T08:21:24.726Z,9.10
2022-11-03T08:23:54.753Z,9.20
2022-11-03T08:26:24.046Z,9.20
2022-11-03T08:28:53.261Z,9.30
2022-11-03T08:31:21.847Z,9.20
2022-11-03T08:33:50.304Z,9.20
2022-11-03T08:36:20.025Z,9.20
2022-11-03T08:38:48.472Z,9.20
2022-11-03T08:41:18.453Z,9.40
2022-11-03T08:43:46.987Z,9.40
2022-11-03T08:46:17.954Z,9.40
2022-11-03T08:48:47.314Z,9.50
2022-11-03T08:51:16.757Z,9.60
2022-11-03T08:53:46.371Z,9.50
2022-11-03T08:56:19.017Z,9.50
2022-11-03T08:58:50.348Z,9.60
2022-11-03T09:01:19.057Z,9.60
2022-11-03T09:03:47.592Z,9.70
2022-11-03T09:06:16.415Z,9.70
2022-11-03T09:11:33.327Z,9.80
2022-11-03T09:14:03.302Z,10.00
2022-11-03T09:16:31.974Z,10.10
2022-11-03T09:19:00.458Z,10.20
2022-11-03T09:21:28.955Z,10.40
2022-11-03T09:23:59.458Z,10.50
2022-11-03T09:26:28.070Z,10.40
2022-11-03T09:28:56.479Z,10.50
2022-11-03T09:31:28.640Z,10.50
2022-11-03T09:33:57.586Z,10.60
2022-11-03T09:36:26.078Z,10.70
2022-11-03T09:38:54.438Z,10.80
2022-11-03T09:41:27.793Z,11.00
2022-11-03T09:44:13.562Z,11.10
2022-11-03T09:46:43.563Z,11.20
2022-11-03T09:49:15.721Z,11.10
2022-11-03T09:51:45.620Z,11.20
2022-11-03T09:54:17.622Z,11.30
2022-11-03T09:56:47.338Z,11.40
2022-11-03T09:59:18.848Z,11.60
2022-11-03T10:01:53.582Z,11.70
2022-11-03T10:04:28.466Z,11.70
2022-11-03T10:06:58.085Z,11.80
2022-11-03T10:09:30.168Z,11.80
2022-11-03T10:11:58.789Z,12.00
2022-11-03T10:14:27.382Z,12.10
2022-11-03T10:17:01.160Z,12.10
2022-11-03T10:19:32.256Z,12.10
2022-11-03T10:22:00.869Z,12.10
2022-11-03T10:24:29.466Z,12.10
2022-11-03T10:26:58.180Z,12.30
2022-11-03T10:29:28.779Z,12.30
2022-11-03T10:32:00.665Z,12.40
2022-11-03T10:34:36.558Z,12.40
2022-11-03T10:37:25.362Z,12.50
2022-11-03T10:39:55.668Z,12.60
2022-11-03T10:42:30.595Z,12.70
2022-11-03T10:45:17.956Z,12.70
2022-11-03T10:48:05.731Z,12.90
2022-11-03T10:50:34.552Z,13.00
2022-11-03T10:53:05.256Z,13.20
2022-11-03T10:55:34.013Z,13.40
2022-11-03T10:58:02.520Z,13.40
2022-11-03T11:00:33.364Z,13.40
2022-11-03T11:03:03.428Z,13.20
2022-11-03T11:05:32.011Z,13.00
2022-11-03T11:08:02.385Z,13.00
2022-11-03T11:10:35.041Z,12.90
2022-11-03T11:13:27.634Z,12.90
2022-11-03T11:15:59.059Z,13.00
2022-11-03T11:19:14.814Z,13.00
2022-11-03T11:22:01.744Z,13.00
2022-11-03T11:24:59.640Z,12.80
2022-11-03T11:28:12.833Z,12.80
2022-11-03T11:31:31.059Z,12.70
2022-11-03T11:34:43.062Z,12.60
2022-11-03T11:37:36.009Z,12.50
2022-11-03T11:40:14.072Z,12.50
2022-11-03T11:43:27.659Z,12.50
2022-11-03T11:46:41.222Z,12.60
2022-11-03T11:49:20.362Z,12.50
2022-11-03T11:51:50.272Z,12.50
2022-11-03T11:54:22.215Z,12.70
2022-11-03T11:56:51.810Z,12.90
2022-11-03T11:59:26.016Z,13.00
2022-11-03T12:01:57.927Z,13.10
2022-11-03T12:04:31.556Z,13.20
2022-11-03T12:07:02.709Z,13.30
2022-11-03T12:09:31.214Z,13.30
2022-11-03T12:12:08.295Z,13.40
2022-11-03T12:14:39.352Z,13.50
2022-11-03T12:17:33.202Z,13.40
2022-11-03T12:20:02.087Z,13.40
2022-11-03T12:22:44.147Z,13.30
2022-11-03T12:25:37.193Z,13.30
2022-11-03T12:28:06.457Z,13.20
2022-11-03T12:30:39.709Z,13.20
2022-11-03T12:33:08.988Z,13.10
2022-11-03T12:35:38.372Z,13.10
2022-11-03T12:38:08.455Z,13.10
2022-11-03T12:40:36.939Z,13.10
2022-11-03T12:43:05.745Z,13.20
2022-11-03T12:45:34.425Z,13.10
2022-11-03T12:48:17.130Z,13.10
2022-11-03T12:50:48.877Z,13.20
2022-11-03T12:53:18.700Z,13.20
2022-11-03T12:55:47.126Z,13.30
2022-11-03T12:58:15.594Z,13.30
2022-11-03T13:00:49.849Z,13.30
2022-11-03T13:03:22.364Z,13.40
2022-11-03T13:05:53.590Z,13.40
2022-11-03T13:08:23.546Z,13.30
2022-11-03T13:10:52.145Z,13.30
2022-11-03T13:13:20.652Z,13.30
2022-11-03T13:15:49.134Z,13.20
2022-11-03T13:18:17.643Z,13.20
2022-11-03T13:20:46.280Z,13.10
2022-11-03T13:23:17.493Z,13.10
2022-11-03T13:25:50.345Z,13.00
2022-11-03T13:28:18.908Z,13.00
2022-11-03T13:30:47.695Z,13.00
2022-11-03T13:33:16.140Z,12.90
2022-11-03T13:35:44.728Z,12.90
2022-11-03T13:38:13.179Z,12.80
2022-11-03T13:41:01.140Z,12.80
2022-11-03T13:43:31.531Z,12.80
2022-11-03T13:46:02.587Z,12.70
2022-11-03T13:51:21.557Z,13.00
2022-11-03T13:59:28.896Z,13.00
2022-11-03T14:04:46.888Z,12.80
2022-11-03T14:07:15.573Z,12.80
2022-11-03T14:09:44.242Z,12.80
2022-11-03T14:12:30.219Z,12.80
2022-11-03T14:15:00.903Z,12.80
2022-11-03T14:17:30.009Z,12.80
2022-11-03T14:20:04.267Z,12.70
2022-11-03T14:22:33.955Z,12.60
2022-11-03T14:25:02.935Z,12.50
2022-11-03T14:27:34.841Z,12.40
2022-11-03T14:30:06.089Z,12.40
2022-11-03T14:32:34.610Z,12.20
2022-11-03T14:35:03.162Z,12.20
2022-11-03T14:37:31.779Z,12.00
2022-11-03T14:40:00.431Z,11.90
2022-11-03T14:42:27.936Z,11.90
2022-11-03T14:44:56.630Z,11.90
2022-11-03T14:47:26.762Z,11.90
2022-11-03T14:49:55.268Z,11.90
2022-11-03T14:52:23.697Z,11.90
2022-11-03T14:54:52.278Z,11.90
2022-11-03T14:57:20.769Z,12.00
2022-11-03T14:59:53.181Z,12.00
2022-11-03T15:02:22.114Z,11.90
2022-11-03T15:04:54.774Z,11.80
2022-11-03T15:07:23.326Z,11.90
2022-11-03T15:09:51.838Z,11.80
2022-11-03T15:12:20.396Z,11.80
2022-11-03T15:14:48.830Z,12.00
2022-11-03T15:17:17.370Z,12.00
2022-11-03T15:19:45.825Z,12.10
2022-11-03T15:22:15.895Z,12.10
2022-11-03T15:27:34.244Z,12.20
2022-11-03T15:30:02.840Z,12.20
2022-11-03T15:32:36.186Z,12.00
2022-11-03T15:35:05.778Z,12.00
2022-11-03T15:37:35.673Z,11.90
2022-11-03T15:40:04.612Z,11.90
2022-11-03T15:42:33.081Z,11.90
2022-11-03T15:45:01.555Z,11.80
2022-11-03T15:47:30.040Z,11.90
2022-11-03T15:49:58.525Z,11.80
2022-11-03T15:52:27.148Z,11.70
2022-11-03T15:54:57.160Z,11.70
2022-11-03T15:57:25.711Z,11.80
2022-11-03T15:59:57.749Z,11.80
2022-11-03T16:02:40.874Z,11.90
2022-11-03T16:05:11.561Z,11.90
2022-11-03T16:07:40.253Z,12.00
2022-11-03T16:10:10.961Z,11.90
2022-11-03T16:12:39.465Z,12.00
2022-11-03T16:15:10.358Z,11.90
2022-11-03T16:17:44.300Z,12.00
2022-11-03T16:20:14.219Z,12.00
2022-11-03T16:22:42.780Z,12.00
2022-11-03T16:25:16.727Z,11.90
2022-11-03T16:27:46.555Z,11.90
2022-11-03T16:30:15.416Z,11.80
2022-11-03T16:32:44.029Z,11.80
2022-11-03T16:35:12.526Z,11.70
2022-11-03T16:37:41.112Z,11.80
2022-11-03T16:40:17.976Z,11.80
2022-11-03T16:42:48.428Z,11.80
2022-11-03T16:45:20.519Z,11.90
2022-11-03T16:47:51.109Z,11.90
2022-11-03T16:50:20.822Z,12.00
2022-11-03T16:52:50.882Z,12.00
2022-11-03T16:55:21.617Z,12.00
2022-11-03T16:57:50.297Z,12.00
2022-11-03T17:00:21.138Z,12.10
2022-11-03T17:02:50.236Z,12.10
2022-11-03T17:05:22.044Z,12.10
2022-11-03T17:07:54.004Z,12.00
2022-11-03T17:10:24.886Z,12.00
2022-11-03T17:12:53.630Z,12.10
2022-11-03T17:15:24.155Z,12.10
2022-11-03T17:17:52.864Z,12.00
2022-11-03T17:20:21.764Z,12.00
2022-11-03T17:22:50.348Z,11.90
2022-11-03T17:25:19.339Z,11.80
2022-11-03T17:27:53.833Z,11.70
2022-11-03T17:30:25.359Z,11.60
2022-11-03T17:32:57.379Z,11.50
2022-11-03T17:35:36.219Z,11.50
2022-11-03T17:38:13.804Z,11.50
2022-11-03T17:40:45.342Z,11.50
2022-11-03T17:43:23.019Z,11.40
2022-11-03T17:45:51.560Z,11.50
2022-11-03T17:48:20.085Z,11.50
2022-11-03T17:50:53.351Z,11.50
2022-11-03T17:53:26.615Z,11.60
2022-11-03T17:56:27.723Z,11.60
2022-11-03T17:58:47.446Z,11.60
2022-11-03T18:01:25.077Z,11.70
2022-11-03T18:03:53.839Z,11.70
2022-11-03T18:06:23.060Z,11.80
2022-11-03T18:08:51.715Z,11.80
2022-11-03T18:11:46.688Z,11.90
2022-11-03T18:14:17.748Z,11.90
2022-11-03T18:16:46.739Z,11.90
2022-11-03T18:19:17.631Z,12.00
2022-11-03T18:21:46.585Z,12.00
2022-11-03T18:24:17.673Z,12.00
2022-11-03T18:26:46.391Z,12.00
2022-11-03T18:29:16.517Z,12.00
2022-11-03T18:31:49.864Z,12.00
2022-11-03T18:34:23.537Z,12.00
2022-11-03T18:36:55.348Z,12.00
2022-11-03T18:39:27.348Z,12.10
2022-11-03T18:41:56.571Z,12.10
2022-11-03T18:44:29.405Z,12.10
2022-11-03T18:46:59.586Z,12.10
2022-11-03T18:49:30.241Z,12.10
2022-11-03T18:52:03.856Z,12.00
2022-11-03T18:54:39.184Z,12.00
2022-11-03T18:57:10.047Z,12.00
2022-11-03T18:59:44.814Z,12.00
2022-11-03T19:02:19.749Z,12.00
2022-11-03T19:04:48.959Z,12.00
2022-11-03T19:07:24.294Z,12.00
2022-11-03T19:09:55.015Z,12.00
2022-11-03T19:12:23.923Z,11.90
2022-11-03T19:14:53.896Z,11.90
2022-11-03T19:17:25.319Z,11.90
2022-11-03T19:19:54.623Z,11.90
2022-11-03T19:22:24.433Z,12.00
2022-11-03T19:24:53.015Z,11.90
2022-11-03T19:27:29.998Z,12.00
2022-11-03T19:30:03.780Z,11.90
2022-11-03T19:32:36.943Z,11.90
2022-11-03T19:35:10.256Z,11.90
2022-11-03T19:37:38.967Z,11.80
2022-11-03T19:40:12.680Z,11.80
2022-11-03T19:42:40.198Z,11.70
2022-11-03T19:45:15.996Z,11.50
2022-11-03T19:48:18.153Z,11.50
2022-11-03T19:50:42.512Z,11.40
2022-11-03T19:53:20.028Z,11.30
2022-11-03T19:55:49.541Z,11.30
2022-11-03T19:58:21.574Z,11.30
2022-11-03T20:00:54.670Z,11.50
2022-11-03T20:03:24.187Z,11.50
2022-11-03T20:05:56.130Z,11.60
2022-11-03T20:08:28.261Z,11.60
2022-11-03T20:10:57.144Z,11.70
2022-11-03T20:13:31.328Z,11.70
2022-11-03T20:16:01.721Z,11.80
2022-11-03T20:18:30.380Z,11.70
2022-11-03T20:20:59.876Z,11.70
2022-11-03T20:23:32.093Z,11.80
2022-11-03T20:26:01.662Z,11.80
2022-11-03T20:28:33.075Z,11.80
2022-11-03T20:31:03.921Z,11.70
2022-11-03T20:33:32.834Z,11.30
2022-11-03T20:36:02.083Z,11.30
2022-11-03T20:38:31.626Z,11.50
2022-11-03T20:41:05.333Z,11.60
2022-11-03T20:43:38.598Z,11.60
2022-11-03T20:46:24.050Z,11.60
2022-11-03T20:48:55.337Z,11.70
2022-11-03T20:51:26.300Z,11.80
2022-11-03T20:53:55.777Z,11.90
2022-11-03T20:56:28.425Z,11.80
2022-11-03T20:58:58.193Z,11.60
2022-11-03T21:01:33.188Z,11.40
2022-11-03T21:04:03.627Z,11.50
2022-11-03T21:06:34.214Z,11.50
2022-11-03T21:09:03.051Z,11.60
2022-11-03T21:11:39.903Z,11.60
2022-11-03T21:14:16.950Z,11.70
2022-11-03T21:17:04.234Z,11.70
2022-11-03T21:19:57.245Z,11.70
2022-11-03T21:25:24.650Z,11.90
2022-11-03T21:27:54.757Z,12.00
2022-11-03T21:30:24.538Z,12.00
2022-11-03T21:32:54.529Z,12.00
2022-11-03T21:35:24.096Z,12.10
2022-11-03T21:37:52.764Z,12.10
2022-11-03T21:40:21.731Z,12.20
2022-11-03T21:43:07.628Z,12.20
2022-11-03T21:45:36.157Z,12.20
2022-11-03T21:48:24.552Z,12.10
2022-11-03T21:50:53.160Z,12.10
2022-11-03T21:53:22.066Z,12.10
2022-11-03T21:55:51.137Z,12.00
2022-11-03T21:58:19.663Z,12.00
2022-11-03T22:00:48.501Z,11.90
2022-11-03T22:03:18.410Z,11.90
2022-11-03T22:05:46.905Z,11.90
2022-11-03T22:08:15.441Z,11.90
2022-11-03T22:10:43.955Z,12.00
2022-11-03T22:13:12.792Z,12.00
2022-11-03T22:15:59.035Z,12.00
2022-11-03T22:18:28.895Z,12.00
2022-11-03T22:21:16.934Z,11.90
2022-11-03T22:24:02.821Z,11.80
2022-11-03T22:26:48.802Z,11.50
2022-11-03T22:29:34.806Z,11.50
2022-11-03T22:32:03.513Z,11.60
2022-11-03T22:34:56.136Z,11.70
2022-11-03T22:37:24.627Z,11.70
2022-11-03T22:40:10.590Z,11.80
2022-11-03T22:42:56.495Z,11.80
2022-11-03T22:45:42.492Z,11.90
2022-11-03T22:48:12.723Z,11.90
2022-11-03T22:50:42.610Z,11.90
2022-11-03T22:53:36.813Z,11.90
2022-11-03T22:56:05.627Z,11.80
2022-11-03T22:58:34.791Z,11.70
2022-11-03T23:01:09.019Z,11.70
2022-11-03T23:03:40.063Z,11.80
2022-11-03T23:06:12.119Z,11.60
2022-11-03T23:08:43.405Z,11.50
2022-11-03T23:11:17.253Z,11.50
2022-11-03T23:13:47.866Z,11.50
2022-11-03T23:16:19.432Z,11.60
2022-11-03T23:19:06.139Z,11.70
2022-11-03T23:21:36.954Z,11.70
2022-11-03T23:24:23.896Z,11.70
2022-11-03T23:26:52.749Z,11.60
2022-11-03T23:29:21.267Z,11.70
2022-11-03T23:31:49.916Z,11.80
2022-11-03T23:34:18.915Z,11.80
2022-11-03T23:36:50.805Z,11.90
2022-11-03T23:39:21.659Z,11.80
2022-11-03T23:41:51.434Z,11.70
2022-11-03T23:44:20.053Z,11.80
2022-11-03T23:47:05.828Z,11.70
2022-11-03T23:49:34.415Z,11.90
2022-11-03T23:52:04.562Z,12.00
2022-11-03T23:54:33.262Z,11.80
2022-11-03T23:57:18.985Z,11.90
2022-11-03T23:59:47.479Z,12.00
